Linwood, New York
Current Conditions -  °F | °C
As of 11:54 PM on Friday 19 Dec 2014 (Local Time) from KROC Reporting Station
Overcast Overcast  
Wind Chill: 24°   Ceiling: 2100
Heat Index: 29°   Visibility: 10mi
Dew Point: 22°   Wind: 5mph
Humidity: 75%   Direction: 310°NW
Pressure: 30.26"   Gusts: NA
Location:  42.89°N, 77.95°W
Report Text: KROC 200454Z 31004KT 10SM OVC021 M02/M06 A3026 RMK AO2 SLP256 T10171056 410111039
Loading
Personal Weather Stations






























Interactive Weather Map New forecast layout! Learn more

10-Day Weather Forecast

Advertisements
Track Severe Weather on mobile